Terminal Aerodrome Forecast
Issued by NWS

Home | Current Version | Previous Version | Text Only | Print | Product List | Glossary On
Versions: 1 2 3 4 5 6 7 8 9 10 11 12 13 14
000
FTUS44 KLZK 311726
TAFBPK
TAF
KBPK 311726Z 3118/0118 16006KT P6SM SCT050 SCT250
     FM010100 14003KT P6SM SCT250
     FM011000 VRB03KT 4SM BR FEW250
     FM011400 16003KT P6SM SCT250=

USA.gov is the U.S. government's official web portal to all federal, state and local government web resources and services.